sensor_id;sensor_type;location;lat;lon;timestamp;P1;durP1;ratioP1;P2;durP2;ratioP2
39918;SDS011;25589;51.552;13.424;2023-04-24T00:00:04;4.47;;;3.03;;
39918;SDS011;25589;51.552;13.424;2023-04-24T00:02:38;3.85;;;3.15;;
39918;SDS011;25589;51.552;13.424;2023-04-24T00:05:07;3.40;;;3.10;;
39918;SDS011;25589;51.552;13.424;2023-04-24T00:07:33;5.10;;;3.22;;
39918;SDS011;25589;51.552;13.424;2023-04-24T00:09:59;3.40;;;3.10;;
39918;SDS011;25589;51.552;13.424;2023-04-24T00:12:25;4.20;;;3.15;;
39918;SDS011;25589;51.552;13.424;2023-04-24T00:14:52;6.95;;;3.83;;
39918;SDS011;25589;51.552;13.424;2023-04-24T00:17:17;4.07;;;3.25;;
39918;SDS011;25589;51.552;13.424;2023-04-24T00:19:46;4.38;;;3.65;;
39918;SDS011;25589;51.552;13.424;2023-04-24T00:22:13;4.95;;;3.50;;
39918;SDS011;25589;51.552;13.424;2023-04-24T00:24:39;4.82;;;3.42;;
39918;SDS011;25589;51.552;13.424;2023-04-24T00:27:05;3.75;;;3.25;;
39918;SDS011;25589;51.552;13.424;2023-04-24T00:29:31;5.47;;;3.28;;
39918;SDS011;25589;51.552;13.424;2023-04-24T00:31:56;6.57;;;4.15;;
39918;SDS011;25589;51.552;13.424;2023-04-24T00:34:22;6.35;;;4.43;;
39918;SDS011;25589;51.552;13.424;2023-04-24T00:36:48;4.57;;;4.03;;
39918;SDS011;25589;51.552;13.424;2023-04-24T00:39:20;4.25;;;3.85;;
39918;SDS011;25589;51.552;13.424;2023-04-24T00:41:46;5.32;;;4.40;;
39918;SDS011;25589;51.552;13.424;2023-04-24T00:44:13;4.70;;;3.85;;
39918;SDS011;25589;51.552;13.424;2023-04-24T00:46:39;6.07;;;4.57;;
39918;SDS011;25589;51.552;13.424;2023-04-24T00:49:06;5.53;;;3.90;;
39918;SDS011;25589;51.552;13.424;2023-04-24T00:51:31;6.47;;;4.32;;
39918;SDS011;25589;51.552;13.424;2023-04-24T00:53:58;6.68;;;4.10;;
39918;SDS011;25589;51.552;13.424;2023-04-24T00:56:25;4.53;;;3.65;;
39918;SDS011;25589;51.552;13.424;2023-04-24T00:58:50;3.85;;;3.47;;
39918;SDS011;25589;51.552;13.424;2023-04-24T01:01:16;5.10;;;4.38;;
39918;SDS011;25589;51.552;13.424;2023-04-24T01:03:46;6.38;;;4.78;;
39918;SDS011;25589;51.552;13.424;2023-04-24T01:06:12;5.28;;;4.22;;
39918;SDS011;25589;51.552;13.424;2023-04-24T01:08:39;6.13;;;4.97;;
39918;SDS011;25589;51.552;13.424;2023-04-24T01:11:05;7.97;;;5.68;;
39918;SDS011;25589;51.552;13.424;2023-04-24T01:13:31;8.75;;;5.75;;
39918;SDS011;25589;51.552;13.424;2023-04-24T01:15:57;7.30;;;5.05;;
39918;SDS011;25589;51.552;13.424;2023-04-24T01:18:23;6.82;;;4.97;;
39918;SDS011;25589;51.552;13.424;2023-04-24T01:20:50;6.20;;;4.72;;
39918;SDS011;25589;51.552;13.424;2023-04-24T01:23:18;8.02;;;5.03;;
39918;SDS011;25589;51.552;13.424;2023-04-24T01:25:43;7.72;;;5.30;;
39918;SDS011;25589;51.552;13.424;2023-04-24T01:28:09;8.57;;;5.53;;
39918;SDS011;25589;51.552;13.424;2023-04-24T01:30:37;8.25;;;6.00;;
39918;SDS011;25589;51.552;13.424;2023-04-24T01:33:02;10.27;;;5.35;;
39918;SDS011;25589;51.552;13.424;2023-04-24T01:35:28;8.05;;;5.15;;
39918;SDS011;25589;51.552;13.424;2023-04-24T01:37:54;7.25;;;5.32;;
39918;SDS011;25589;51.552;13.424;2023-04-24T01:40:19;7.20;;;5.28;;
39918;SDS011;25589;51.552;13.424;2023-04-24T01:42:45;7.03;;;5.25;;
39918;SDS011;25589;51.552;13.424;2023-04-24T01:45:11;7.00;;;4.95;;
39918;SDS011;25589;51.552;13.424;2023-04-24T01:47:38;7.82;;;5.55;;
39918;SDS011;25589;51.552;13.424;2023-04-24T01:50:05;7.13;;;5.60;;
39918;SDS011;25589;51.552;13.424;2023-04-24T01:52:31;7.85;;;5.50;;
39918;SDS011;25589;51.552;13.424;2023-04-24T01:55:01;6.40;;;5.35;;
39918;SDS011;25589;51.552;13.424;2023-04-24T01:57:29;6.10;;;5.03;;
39918;SDS011;25589;51.552;13.424;2023-04-24T01:59:55;8.85;;;5.95;;
39918;SDS011;25589;51.552;13.424;2023-04-24T02:02:21;7.88;;;5.70;;
39918;SDS011;25589;51.552;13.424;2023-04-24T02:04:49;7.63;;;5.28;;
39918;SDS011;25589;51.552;13.424;2023-04-24T02:07:15;8.55;;;5.47;;
39918;SDS011;25589;51.552;13.424;2023-04-24T02:09:40;7.93;;;5.47;;
39918;SDS011;25589;51.552;13.424;2023-04-24T02:12:06;6.00;;;5.28;;
39918;SDS011;25589;51.552;13.424;2023-04-24T02:14:32;5.95;;;4.75;;
39918;SDS011;25589;51.552;13.424;2023-04-24T02:16:57;5.93;;;4.63;;
39918;SDS011;25589;51.552;13.424;2023-04-24T02:19:23;6.07;;;5.00;;
39918;SDS011;25589;51.552;13.424;2023-04-24T02:21:49;6.32;;;4.47;;
39918;SDS011;25589;51.552;13.424;2023-04-24T02:24:15;5.47;;;4.80;;
39918;SDS011;25589;51.552;13.424;2023-04-24T02:26:41;6.93;;;5.00;;
39918;SDS011;25589;51.552;13.424;2023-04-24T02:29:06;4.70;;;4.13;;
39918;SDS011;25589;51.552;13.424;2023-04-24T02:31:32;5.95;;;4.22;;
39918;SDS011;25589;51.552;13.424;2023-04-24T02:33:58;5.63;;;4.60;;
39918;SDS011;25589;51.552;13.424;2023-04-24T02:36:24;4.70;;;3.95;;
39918;SDS011;25589;51.552;13.424;2023-04-24T02:38:50;7.25;;;4.70;;
39918;SDS011;25589;51.552;13.424;2023-04-24T02:41:15;5.20;;;3.88;;
39918;SDS011;25589;51.552;13.424;2023-04-24T02:43:41;4.30;;;3.90;;
39918;SDS011;25589;51.552;13.424;2023-04-24T02:46:07;6.43;;;3.72;;
39918;SDS011;25589;51.552;13.424;2023-04-24T02:48:32;5.78;;;4.43;;
39918;SDS011;25589;51.552;13.424;2023-04-24T02:50:58;4.07;;;3.40;;
39918;SDS011;25589;51.552;13.424;2023-04-24T02:53:23;4.50;;;3.75;;
39918;SDS011;25589;51.552;13.424;2023-04-24T02:55:49;4.30;;;3.90;;
39918;SDS011;25589;51.552;13.424;2023-04-24T02:58:15;4.82;;;4.18;;
39918;SDS011;25589;51.552;13.424;2023-04-24T03:00:42;5.38;;;4.05;;
39918;SDS011;25589;51.552;13.424;2023-04-24T03:03:08;5.53;;;3.83;;
39918;SDS011;25589;51.552;13.424;2023-04-24T03:05:34;4.78;;;3.75;;
39918;SDS011;25589;51.552;13.424;2023-04-24T03:08:00;5.13;;;3.58;;
39918;SDS011;25589;51.552;13.424;2023-04-24T03:10:25;4.40;;;3.90;;
39918;SDS011;25589;51.552;13.424;2023-04-24T03:12:51;5.28;;;3.33;;
39918;SDS011;25589;51.552;13.424;2023-04-24T03:15:17;4.03;;;3.60;;
39918;SDS011;25589;51.552;13.424;2023-04-24T03:17:43;6.70;;;3.78;;
39918;SDS011;25589;51.552;13.424;2023-04-24T03:20:08;5.53;;;3.58;;
39918;SDS011;25589;51.552;13.424;2023-04-24T03:22:35;3.42;;;3.13;;
39918;SDS011;25589;51.552;13.424;2023-04-24T03:25:04;5.88;;;3.40;;
39918;SDS011;25589;51.552;13.424;2023-04-24T03:27:30;6.35;;;3.60;;
39918;SDS011;25589;51.552;13.424;2023-04-24T03:30:00;7.05;;;3.33;;
39918;SDS011;25589;51.552;13.424;2023-04-24T03:32:40;5.90;;;3.95;;
39918;SDS011;25589;51.552;13.424;2023-04-24T03:35:09;4.18;;;3.20;;
39918;SDS011;25589;51.552;13.424;2023-04-24T03:37:34;3.63;;;2.90;;
39918;SDS011;25589;51.552;13.424;2023-04-24T03:43:13;4.85;;;2.60;;
39918;SDS011;25589;51.552;13.424;2023-04-24T03:45:39;3.80;;;3.00;;
39918;SDS011;25589;51.552;13.424;2023-04-24T03:48:05;3.67;;;3.05;;
39918;SDS011;25589;51.552;13.424;2023-04-24T03:50:31;5.13;;;2.72;;
39918;SDS011;25589;51.552;13.424;2023-04-24T03:53:00;3.08;;;2.78;;
39918;SDS011;25589;51.552;13.424;2023-04-24T03:55:34;4.95;;;3.00;;
39918;SDS011;25589;51.552;13.424;2023-04-24T03:58:00;3.10;;;2.40;;
39918;SDS011;25589;51.552;13.424;2023-04-24T04:00:26;4.03;;;2.80;;
39918;SDS011;25589;51.552;13.424;2023-04-24T04:03:07;2.83;;;2.30;;
39918;SDS011;25589;51.552;13.424;2023-04-24T04:05:33;4.18;;;2.15;;
39918;SDS011;25589;51.552;13.424;2023-04-24T04:07:58;2.25;;;2.05;;
39918;SDS011;25589;51.552;13.424;2023-04-24T04:10:24;2.85;;;2.40;;
39918;SDS011;25589;51.552;13.424;2023-04-24T04:12:50;2.40;;;2.20;;
39918;SDS011;25589;51.552;13.424;2023-04-24T04:15:15;3.15;;;1.90;;
39918;SDS011;25589;51.552;13.424;2023-04-24T04:17:41;2.28;;;1.83;;
39918;SDS011;25589;51.552;13.424;2023-04-24T04:20:07;2.05;;;1.70;;
39918;SDS011;25589;51.552;13.424;2023-04-24T04:22:36;2.85;;;2.08;;
39918;SDS011;25589;51.552;13.424;2023-04-24T04:25:03;2.65;;;1.75;;
39918;SDS011;25589;51.552;13.424;2023-04-24T04:27:30;3.00;;;1.90;;
39918;SDS011;25589;51.552;13.424;2023-04-24T04:30:03;1.88;;;1.52;;
39918;SDS011;25589;51.552;13.424;2023-04-24T04:32:35;2.33;;;1.67;;
39918;SDS011;25589;51.552;13.424;2023-04-24T04:35:03;3.10;;;1.60;;
39918;SDS011;25589;51.552;13.424;2023-04-24T04:37:31;2.10;;;1.75;;
39918;SDS011;25589;51.552;13.424;2023-04-24T04:40:13;2.30;;;1.95;;
39918;SDS011;25589;51.552;13.424;2023-04-24T04:42:48;4.07;;;2.88;;
39918;SDS011;25589;51.552;13.424;2023-04-24T04:45:14;2.25;;;2.00;;
39918;SDS011;25589;51.552;13.424;2023-04-24T04:48:00;3.00;;;2.15;;
39918;SDS011;25589;51.552;13.424;2023-04-24T04:50:29;1.80;;;1.70;;
39918;SDS011;25589;51.552;13.424;2023-04-24T04:53:00;3.03;;;1.73;;
39918;SDS011;25589;51.552;13.424;2023-04-24T04:55:31;4.28;;;1.95;;
39918;SDS011;25589;51.552;13.424;2023-04-24T04:58:16;7.18;;;2.58;;
39918;SDS011;25589;51.552;13.424;2023-04-24T05:00:43;8.00;;;2.70;;
39918;SDS011;25589;51.552;13.424;2023-04-24T05:03:25;3.70;;;2.40;;
39918;SDS011;25589;51.552;13.424;2023-04-24T05:05:57;4.78;;;1.80;;
39918;SDS011;25589;51.552;13.424;2023-04-24T05:08:23;2.28;;;1.40;;
39918;SDS011;25589;51.552;13.424;2023-04-24T05:10:49;1.35;;;1.17;;
39918;SDS011;25589;51.552;13.424;2023-04-24T05:13:15;2.15;;;1.60;;
39918;SDS011;25589;51.552;13.424;2023-04-24T05:15:40;1.45;;;1.35;;
39918;SDS011;25589;51.552;13.424;2023-04-24T05:18:06;3.45;;;1.52;;
39918;SDS011;25589;51.552;13.424;2023-04-24T05:20:32;1.75;;;1.30;;
39918;SDS011;25589;51.552;13.424;2023-04-24T05:22:58;2.40;;;1.60;;
39918;SDS011;25589;51.552;13.424;2023-04-24T05:25:27;1.42;;;1.30;;
39918;SDS011;25589;51.552;13.424;2023-04-24T05:27:56;2.75;;;1.40;;
39918;SDS011;25589;51.552;13.424;2023-04-24T05:30:22;2.15;;;0.95;;
39918;SDS011;25589;51.552;13.424;2023-04-24T05:32:50;2.10;;;1.13;;
39918;SDS011;25589;51.552;13.424;2023-04-24T05:35:15;1.73;;;1.27;;
39918;SDS011;25589;51.552;13.424;2023-04-24T05:37:41;1.45;;;1.30;;
39918;SDS011;25589;51.552;13.424;2023-04-24T05:40:08;1.25;;;1.15;;
39918;SDS011;25589;51.552;13.424;2023-04-24T05:42:34;1.20;;;1.10;;
39918;SDS011;25589;51.552;13.424;2023-04-24T05:44:59;3.10;;;1.50;;
39918;SDS011;25589;51.552;13.424;2023-04-24T05:47:25;2.72;;;1.60;;
39918;SDS011;25589;51.552;13.424;2023-04-24T05:49:52;1.45;;;1.10;;
39918;SDS011;25589;51.552;13.424;2023-04-24T05:52:18;1.80;;;1.50;;
39918;SDS011;25589;51.552;13.424;2023-04-24T05:54:44;1.38;;;1.27;;
39918;SDS011;25589;51.552;13.424;2023-04-24T05:57:12;3.42;;;1.63;;
39918;SDS011;25589;51.552;13.424;2023-04-24T06:00:00;1.48;;;1.38;;
39918;SDS011;25589;51.552;13.424;2023-04-24T06:02:28;1.63;;;1.40;;
39918;SDS011;25589;51.552;13.424;2023-04-24T06:04:58;4.80;;;2.15;;
39918;SDS011;25589;51.552;13.424;2023-04-24T06:07:25;2.75;;;1.60;;
39918;SDS011;25589;51.552;13.424;2023-04-24T06:09:54;2.28;;;1.30;;
39918;SDS011;25589;51.552;13.424;2023-04-24T06:12:21;2.20;;;1.40;;
39918;SDS011;25589;51.552;13.424;2023-04-24T06:14:58;3.03;;;1.52;;
39918;SDS011;25589;51.552;13.424;2023-04-24T06:17:33;2.88;;;1.40;;
39918;SDS011;25589;51.552;13.424;2023-04-24T06:19:59;3.00;;;1.38;;
39918;SDS011;25589;51.552;13.424;2023-04-24T06:22:25;4.82;;;1.42;;
39918;SDS011;25589;51.552;13.424;2023-04-24T06:24:50;1.58;;;1.30;;
39918;SDS011;25589;51.552;13.424;2023-04-24T06:27:16;2.88;;;1.10;;
39918;SDS011;25589;51.552;13.424;2023-04-24T06:29:42;2.63;;;1.25;;
39918;SDS011;25589;51.552;13.424;2023-04-24T06:32:07;1.90;;;1.27;;
39918;SDS011;25589;51.552;13.424;2023-04-24T06:34:33;1.48;;;1.08;;
39918;SDS011;25589;51.552;13.424;2023-04-24T06:37:00;1.83;;;1.40;;
39918;SDS011;25589;51.552;13.424;2023-04-24T06:39:26;3.78;;;1.50;;
39918;SDS011;25589;51.552;13.424;2023-04-24T06:41:51;2.53;;;1.30;;
39918;SDS011;25589;51.552;13.424;2023-04-24T06:44:19;2.85;;;1.58;;
39918;SDS011;25589;51.552;13.424;2023-04-24T06:46:45;2.65;;;1.30;;
39918;SDS011;25589;51.552;13.424;2023-04-24T06:49:10;2.22;;;1.40;;
39918;SDS011;25589;51.552;13.424;2023-04-24T06:51:36;1.63;;;1.30;;
39918;SDS011;25589;51.552;13.424;2023-04-24T06:54:01;3.13;;;1.55;;
39918;SDS011;25589;51.552;13.424;2023-04-24T06:56:27;2.05;;;1.75;;
39918;SDS011;25589;51.552;13.424;2023-04-24T06:58:54;2.40;;;1.60;;
39918;SDS011;25589;51.552;13.424;2023-04-24T07:01:19;8.43;;;1.85;;
39918;SDS011;25589;51.552;13.424;2023-04-24T07:03:45;4.53;;;1.42;;
39918;SDS011;25589;51.552;13.424;2023-04-24T07:06:10;1.02;;;1.02;;
39918;SDS011;25589;51.552;13.424;2023-04-24T07:08:37;5.63;;;1.30;;
39918;SDS011;25589;51.552;13.424;2023-04-24T07:11:03;1.70;;;1.10;;
39918;SDS011;25589;51.552;13.424;2023-04-24T07:13:29;2.38;;;1.10;;
39918;SDS011;25589;51.552;13.424;2023-04-24T07:15:54;1.05;;;0.82;;
39918;SDS011;25589;51.552;13.424;2023-04-24T07:18:21;4.90;;;1.00;;
39918;SDS011;25589;51.552;13.424;2023-04-24T07:20:47;2.95;;;1.30;;
39918;SDS011;25589;51.552;13.424;2023-04-24T07:23:15;1.63;;;1.00;;
39918;SDS011;25589;51.552;13.424;2023-04-24T07:25:40;0.80;;;0.80;;
39918;SDS011;25589;51.552;13.424;2023-04-24T07:28:06;1.88;;;1.05;;
39918;SDS011;25589;51.552;13.424;2023-04-24T07:30:31;2.70;;;1.00;;
39918;SDS011;25589;51.552;13.424;2023-04-24T07:32:58;0.90;;;0.77;;
39918;SDS011;25589;51.552;13.424;2023-04-24T07:35:24;2.08;;;0.82;;
39918;SDS011;25589;51.552;13.424;2023-04-24T07:37:53;2.30;;;0.90;;
39918;SDS011;25589;51.552;13.424;2023-04-24T07:40:19;2.42;;;0.88;;
39918;SDS011;25589;51.552;13.424;2023-04-24T07:42:45;1.38;;;0.80;;
39918;SDS011;25589;51.552;13.424;2023-04-24T07:45:13;1.00;;;0.90;;
39918;SDS011;25589;51.552;13.424;2023-04-24T07:47:39;2.83;;;1.10;;
39918;SDS011;25589;51.552;13.424;2023-04-24T07:50:08;2.10;;;1.20;;
39918;SDS011;25589;51.552;13.424;2023-04-24T07:52:34;2.50;;;1.55;;
39918;SDS011;25589;51.552;13.424;2023-04-24T07:55:00;1.20;;;1.10;;
39918;SDS011;25589;51.552;13.424;2023-04-24T07:57:27;3.50;;;1.80;;
39918;SDS011;25589;51.552;13.424;2023-04-24T07:59:52;1.35;;;0.80;;
39918;SDS011;25589;51.552;13.424;2023-04-24T08:02:18;2.35;;;0.70;;
39918;SDS011;25589;51.552;13.424;2023-04-24T08:04:43;0.73;;;0.73;;
39918;SDS011;25589;51.552;13.424;2023-04-24T08:07:09;1.60;;;0.95;;
39918;SDS011;25589;51.552;13.424;2023-04-24T08:09:35;2.53;;;1.23;;
39918;SDS011;25589;51.552;13.424;2023-04-24T08:12:00;3.42;;;1.02;;
39918;SDS011;25589;51.552;13.424;2023-04-24T08:14:27;0.93;;;0.82;;
39918;SDS011;25589;51.552;13.424;2023-04-24T08:16:56;2.22;;;1.10;;
39918;SDS011;25589;51.552;13.424;2023-04-24T08:19:21;2.17;;;1.00;;
39918;SDS011;25589;51.552;13.424;2023-04-24T08:21:47;1.52;;;1.00;;
39918;SDS011;25589;51.552;13.424;2023-04-24T08:24:13;3.03;;;1.17;;
39918;SDS011;25589;51.552;13.424;2023-04-24T08:26:39;4.20;;;0.93;;
39918;SDS011;25589;51.552;13.424;2023-04-24T08:29:04;5.90;;;1.00;;
39918;SDS011;25589;51.552;13.424;2023-04-24T08:31:31;2.35;;;0.80;;
39918;SDS011;25589;51.552;13.424;2023-04-24T08:33:57;1.08;;;0.80;;
39918;SDS011;25589;51.552;13.424;2023-04-24T08:36:23;1.27;;;0.80;;
39918;SDS011;25589;51.552;13.424;2023-04-24T08:38:49;1.60;;;1.05;;
39918;SDS011;25589;51.552;13.424;2023-04-24T08:41:15;1.48;;;0.80;;
39918;SDS011;25589;51.552;13.424;2023-04-24T08:43:42;2.08;;;0.90;;
39918;SDS011;25589;51.552;13.424;2023-04-24T08:46:11;1.35;;;0.85;;
39918;SDS011;25589;51.552;13.424;2023-04-24T08:48:38;2.88;;;0.90;;
39918;SDS011;25589;51.552;13.424;2023-04-24T08:51:06;2.33;;;1.00;;
39918;SDS011;25589;51.552;13.424;2023-04-24T08:53:33;4.53;;;1.50;;
39918;SDS011;25589;51.552;13.424;2023-04-24T08:55:59;1.95;;;1.00;;
39918;SDS011;25589;51.552;13.424;2023-04-24T08:58:26;1.52;;;0.90;;
39918;SDS011;25589;51.552;13.424;2023-04-24T09:00:55;2.53;;;0.88;;
39918;SDS011;25589;51.552;13.424;2023-04-24T09:03:23;0.95;;;0.88;;
39918;SDS011;25589;51.552;13.424;2023-04-24T09:05:49;1.58;;;0.73;;
39918;SDS011;25589;51.552;13.424;2023-04-24T09:08:18;2.63;;;1.13;;
39918;SDS011;25589;51.552;13.424;2023-04-24T09:10:44;1.10;;;0.95;;
39918;SDS011;25589;51.552;13.424;2023-04-24T09:13:11;1.20;;;0.80;;
39918;SDS011;25589;51.552;13.424;2023-04-24T09:15:37;4.03;;;0.93;;
39918;SDS011;25589;51.552;13.424;2023-04-24T09:18:03;2.42;;;1.08;;
39918;SDS011;25589;51.552;13.424;2023-04-24T09:20:30;1.15;;;0.90;;
39918;SDS011;25589;51.552;13.424;2023-04-24T09:22:56;2.25;;;1.10;;
39918;SDS011;25589;51.552;13.424;2023-04-24T09:25:23;2.55;;;0.90;;
39918;SDS011;25589;51.552;13.424;2023-04-24T09:28:00;4.40;;;1.50;;
39918;SDS011;25589;51.552;13.424;2023-04-24T09:30:27;1.77;;;1.00;;
39918;SDS011;25589;51.552;13.424;2023-04-24T09:35:40;1.50;;;0.90;;
39918;SDS011;25589;51.552;13.424;2023-04-24T09:38:07;3.92;;;1.00;;
39918;SDS011;25589;51.552;13.424;2023-04-24T09:40:34;2.00;;;1.35;;
39918;SDS011;25589;51.552;13.424;2023-04-24T09:43:00;2.22;;;1.10;;
39918;SDS011;25589;51.552;13.424;2023-04-24T09:45:28;1.50;;;1.00;;
39918;SDS011;25589;51.552;13.424;2023-04-24T09:47:59;1.60;;;1.00;;
39918;SDS011;25589;51.552;13.424;2023-04-24T09:50:25;1.02;;;0.90;;
39918;SDS011;25589;51.552;13.424;2023-04-24T09:53:12;1.10;;;0.98;;
39918;SDS011;25589;51.552;13.424;2023-04-24T09:55:39;2.47;;;1.23;;
39918;SDS011;25589;51.552;13.424;2023-04-24T10:00:35;3.17;;;1.02;;
39918;SDS011;25589;51.552;13.424;2023-04-24T10:03:02;1.33;;;0.90;;
39918;SDS011;25589;51.552;13.424;2023-04-24T10:08:06;1.15;;;1.00;;
39918;SDS011;25589;51.552;13.424;2023-04-24T10:10:34;2.33;;;1.05;;
39918;SDS011;25589;51.552;13.424;2023-04-24T10:13:03;1.95;;;1.27;;
39918;SDS011;25589;51.552;13.424;2023-04-24T10:15:29;3.85;;;1.10;;
39918;SDS011;25589;51.552;13.424;2023-04-24T10:17:57;1.27;;;0.73;;
39918;SDS011;25589;51.552;13.424;2023-04-24T10:20:25;3.03;;;0.75;;
39918;SDS011;25589;51.552;13.424;2023-04-24T10:22:52;1.88;;;0.80;;
39918;SDS011;25589;51.552;13.424;2023-04-24T10:25:23;2.30;;;0.75;;
39918;SDS011;25589;51.552;13.424;2023-04-24T10:27:52;1.55;;;0.70;;
39918;SDS011;25589;51.552;13.424;2023-04-24T10:30:22;1.25;;;0.88;;
39918;SDS011;25589;51.552;13.424;2023-04-24T10:32:48;2.97;;;1.52;;
39918;SDS011;25589;51.552;13.424;2023-04-24T10:35:15;2.60;;;0.85;;
39918;SDS011;25589;51.552;13.424;2023-04-24T10:40:16;2.38;;;0.88;;
39918;SDS011;25589;51.552;13.424;2023-04-24T10:42:43;1.65;;;0.70;;
39918;SDS011;25589;51.552;13.424;2023-04-24T10:45:16;1.33;;;0.90;;
39918;SDS011;25589;51.552;13.424;2023-04-24T10:47:50;1.90;;;1.05;;
39918;SDS011;25589;51.552;13.424;2023-04-24T10:50:24;3.28;;;1.02;;
39918;SDS011;25589;51.552;13.424;2023-04-24T10:52:51;1.55;;;0.90;;
39918;SDS011;25589;51.552;13.424;2023-04-24T10:58:15;2.10;;;1.20;;
39918;SDS011;25589;51.552;13.424;2023-04-24T11:00:42;1.75;;;1.10;;
39918;SDS011;25589;51.552;13.424;2023-04-24T11:03:23;1.25;;;1.02;;
39918;SDS011;25589;51.552;13.424;2023-04-24T11:05:55;6.65;;;1.10;;
39918;SDS011;25589;51.552;13.424;2023-04-24T11:08:23;2.70;;;0.75;;
39918;SDS011;25589;51.552;13.424;2023-04-24T11:10:54;0.90;;;0.90;;
39918;SDS011;25589;51.552;13.424;2023-04-24T11:13:23;2.25;;;1.00;;
39918;SDS011;25589;51.552;13.424;2023-04-24T11:18:40;2.17;;;1.13;;
39918;SDS011;25589;51.552;13.424;2023-04-24T11:21:16;2.53;;;1.02;;
39918;SDS011;25589;51.552;13.424;2023-04-24T11:23:42;1.67;;;0.83;;
39918;SDS011;25589;51.552;13.424;2023-04-24T11:26:26;19.42;;;2.33;;
39918;SDS011;25589;51.552;13.424;2023-04-24T11:29:05;1.55;;;0.88;;
39918;SDS011;25589;51.552;13.424;2023-04-24T11:31:39;0.98;;;0.88;;
39918;SDS011;25589;51.552;13.424;2023-04-24T11:34:13;2.35;;;0.80;;
39918;SDS011;25589;51.552;13.424;2023-04-24T11:36:39;10.85;;;2.53;;
39918;SDS011;25589;51.552;13.424;2023-04-24T11:39:08;3.20;;;1.08;;
39918;SDS011;25589;51.552;13.424;2023-04-24T11:41:33;2.45;;;0.77;;
39918;SDS011;25589;51.552;13.424;2023-04-24T11:44:00;0.80;;;0.80;;
39918;SDS011;25589;51.552;13.424;2023-04-24T11:46:27;0.93;;;0.65;;
39918;SDS011;25589;51.552;13.424;2023-04-24T11:48:55;1.45;;;0.75;;
39918;SDS011;25589;51.552;13.424;2023-04-24T11:51:22;2.33;;;0.77;;
39918;SDS011;25589;51.552;13.424;2023-04-24T11:53:49;1.10;;;0.70;;
39918;SDS011;25589;51.552;13.424;2023-04-24T11:56:17;2.65;;;1.00;;
39918;SDS011;25589;51.552;13.424;2023-04-24T11:58:44;2.03;;;0.73;;
39918;SDS011;25589;51.552;13.424;2023-04-24T12:01:11;1.67;;;0.80;;
39918;SDS011;25589;51.552;13.424;2023-04-24T12:03:37;0.60;;;0.60;;
39918;SDS011;25589;51.552;13.424;2023-04-24T12:06:09;1.10;;;0.82;;
39918;SDS011;25589;51.552;13.424;2023-04-24T12:08:36;0.70;;;0.70;;
39918;SDS011;25589;51.552;13.424;2023-04-24T12:11:03;3.05;;;0.75;;
39918;SDS011;25589;51.552;13.424;2023-04-24T12:13:29;1.63;;;1.00;;
39918;SDS011;25589;51.552;13.424;2023-04-24T12:15:56;4.68;;;1.10;;
39918;SDS011;25589;51.552;13.424;2023-04-24T12:18:22;0.82;;;0.68;;
39918;SDS011;25589;51.552;13.424;2023-04-24T12:20:48;1.10;;;0.77;;
39918;SDS011;25589;51.552;13.424;2023-04-24T12:23:14;1.08;;;0.77;;
39918;SDS011;25589;51.552;13.424;2023-04-24T12:25:40;0.93;;;0.70;;
39918;SDS011;25589;51.552;13.424;2023-04-24T12:30:38;2.85;;;0.95;;
39918;SDS011;25589;51.552;13.424;2023-04-24T12:33:15;1.08;;;0.98;;
39918;SDS011;25589;51.552;13.424;2023-04-24T12:35:43;1.05;;;1.00;;
39918;SDS011;25589;51.552;13.424;2023-04-24T12:38:09;6.43;;;0.90;;
39918;SDS011;25589;51.552;13.424;2023-04-24T12:40:37;2.45;;;1.00;;
39918;SDS011;25589;51.552;13.424;2023-04-24T12:43:12;2.05;;;1.10;;
39918;SDS011;25589;51.552;13.424;2023-04-24T12:45:44;5.10;;;0.95;;
39918;SDS011;25589;51.552;13.424;2023-04-24T12:48:13;0.88;;;0.88;;
39918;SDS011;25589;51.552;13.424;2023-04-24T12:50:42;1.77;;;1.10;;
39918;SDS011;25589;51.552;13.424;2023-04-24T12:53:08;4.13;;;0.85;;
39918;SDS011;25589;51.552;13.424;2023-04-24T12:55:34;1.35;;;0.80;;
39918;SDS011;25589;51.552;13.424;2023-04-24T12:58:00;3.45;;;1.00;;
39918;SDS011;25589;51.552;13.424;2023-04-24T13:00:26;2.88;;;0.90;;
39918;SDS011;25589;51.552;13.424;2023-04-24T13:02:52;3.70;;;0.75;;
39918;SDS011;25589;51.552;13.424;2023-04-24T13:05:18;0.82;;;0.70;;
39918;SDS011;25589;51.552;13.424;2023-04-24T13:07:43;2.85;;;0.70;;
39918;SDS011;25589;51.552;13.424;2023-04-24T13:10:09;0.93;;;0.77;;
39918;SDS011;25589;51.552;13.424;2023-04-24T13:12:35;0.80;;;0.70;;
39918;SDS011;25589;51.552;13.424;2023-04-24T13:15:00;3.70;;;0.80;;
39918;SDS011;25589;51.552;13.424;2023-04-24T13:17:26;2.10;;;1.35;;
39918;SDS011;25589;51.552;13.424;2023-04-24T13:19:53;1.85;;;0.80;;
39918;SDS011;25589;51.552;13.424;2023-04-24T13:22:20;2.47;;;1.10;;
39918;SDS011;25589;51.552;13.424;2023-04-24T13:24:45;0.95;;;0.90;;
39918;SDS011;25589;51.552;13.424;2023-04-24T13:27:13;1.08;;;0.98;;
39918;SDS011;25589;51.552;13.424;2023-04-24T13:29:39;2.05;;;0.90;;
39918;SDS011;25589;51.552;13.424;2023-04-24T13:32:05;0.80;;;0.80;;
39918;SDS011;25589;51.552;13.424;2023-04-24T13:34:31;1.38;;;0.70;;
39918;SDS011;25589;51.552;13.424;2023-04-24T13:36:57;1.13;;;0.95;;
39918;SDS011;25589;51.552;13.424;2023-04-24T13:39:23;1.00;;;0.90;;
39918;SDS011;25589;51.552;13.424;2023-04-24T13:41:49;3.03;;;0.88;;
39918;SDS011;25589;51.552;13.424;2023-04-24T13:44:16;0.82;;;0.80;;
39918;SDS011;25589;51.552;13.424;2023-04-24T13:46:43;3.80;;;0.90;;
39918;SDS011;25589;51.552;13.424;2023-04-24T13:49:10;1.17;;;1.05;;
39918;SDS011;25589;51.552;13.424;2023-04-24T13:51:36;0.95;;;0.82;;
39918;SDS011;25589;51.552;13.424;2023-04-24T13:54:02;1.40;;;0.93;;
39918;SDS011;25589;51.552;13.424;2023-04-24T13:56:28;3.53;;;0.90;;
39918;SDS011;25589;51.552;13.424;2023-04-24T13:58:53;2.25;;;0.82;;
39918;SDS011;25589;51.552;13.424;2023-04-24T14:01:19;1.20;;;0.80;;
39918;SDS011;25589;51.552;13.424;2023-04-24T14:03:49;0.70;;;0.70;;
39918;SDS011;25589;51.552;13.424;2023-04-24T14:06:15;0.70;;;0.70;;
39918;SDS011;25589;51.552;13.424;2023-04-24T14:08:40;1.58;;;0.90;;
39918;SDS011;25589;51.552;13.424;2023-04-24T14:11:06;2.05;;;1.15;;
39918;SDS011;25589;51.552;13.424;2023-04-24T14:13:31;2.25;;;1.17;;
39918;SDS011;25589;51.552;13.424;2023-04-24T14:15:58;2.08;;;1.02;;
39918;SDS011;25589;51.552;13.424;2023-04-24T14:18:23;1.10;;;0.88;;
39918;SDS011;25589;51.552;13.424;2023-04-24T14:20:49;2.53;;;1.10;;
39918;SDS011;25589;51.552;13.424;2023-04-24T14:23:15;0.73;;;0.73;;
39918;SDS011;25589;51.552;13.424;2023-04-24T14:25:40;0.90;;;0.90;;
39918;SDS011;25589;51.552;13.424;2023-04-24T14:28:06;1.00;;;1.00;;
39918;SDS011;25589;51.552;13.424;2023-04-24T14:30:32;1.23;;;1.13;;
39918;SDS011;25589;51.552;13.424;2023-04-24T14:32:57;0.98;;;0.82;;
39918;SDS011;25589;51.552;13.424;2023-04-24T14:35:23;1.75;;;1.13;;
39918;SDS011;25589;51.552;13.424;2023-04-24T14:37:48;2.58;;;1.10;;
39918;SDS011;25589;51.552;13.424;2023-04-24T14:40:14;3.33;;;1.17;;
39918;SDS011;25589;51.552;13.424;2023-04-24T14:42:40;2.80;;;1.40;;
39918;SDS011;25589;51.552;13.424;2023-04-24T14:45:06;2.25;;;1.10;;
39918;SDS011;25589;51.552;13.424;2023-04-24T14:47:32;2.35;;;0.98;;
39918;SDS011;25589;51.552;13.424;2023-04-24T14:49:58;1.75;;;1.00;;
39918;SDS011;25589;51.552;13.424;2023-04-24T14:52:24;1.85;;;0.98;;
39918;SDS011;25589;51.552;13.424;2023-04-24T14:54:50;1.90;;;1.00;;